Time;durP1;ratioP1;P1;durP2;ratioP2;P2;SDS_P1;SDS_P2;PMS_P1;PMS_P2;Temp;Humidity;BMP_temperature;BMP_pressure;BME280_temperature;BME280_humidity;BME280_pressure;Samples;Min_cycle;Max_cycle;Signal;HPM_P1;HPM_P2
2022/09/17 00:01:55;;;;;;;1.17;0.80;;;24.00;41.20;;;;;;6207925;23;20240;-62
2022/09/17 00:04:21;;;;;;;1.03;0.90;;;24.00;41.30;;;;;;6203296;23;20301;-59
2022/09/17 00:06:46;;;;;;;1.00;0.90;;;24.00;41.20;;;;;;6203214;23;20198;-58
2022/09/17 00:09:12;;;;;;;0.97;0.70;;;24.00;41.20;;;;;;6204880;23;20677;-58
2022/09/17 00:11:40;;;;;;;1.00;0.70;;;24.00;41.20;;;;;;6205570;23;20214;-60
2022/09/17 00:14:08;;;;;;;1.13;1.03;;;24.00;41.30;;;;;;6204483;23;20190;-60
2022/09/17 00:16:37;;;;;;;1.03;0.93;;;24.00;41.20;;;;;;6204133;23;20431;-59
2022/09/17 00:19:04;;;;;;;1.30;1.13;;;24.00;41.20;;;;;;6208070;23;20530;-59
2022/09/17 00:21:30;;;;;;;0.83;0.83;;;24.00;41.20;;;;;;6206919;23;20419;-60
2022/09/17 00:24:01;;;;;;;1.27;1.17;;;24.00;41.20;;;;;;6208929;23;20407;-58
2022/09/17 00:26:28;;;;;;;1.27;1.07;;;24.00;41.20;;;;;;6188424;23;20226;-63
2022/09/17 00:28:55;;;;;;;1.10;0.80;;;24.00;41.20;;;;;;6176766;23;20439;-58
2022/09/17 00:31:21;;;;;;;1.00;0.90;;;24.00;41.20;;;;;;6176265;23;20401;-58
2022/09/17 00:33:47;;;;;;;1.20;0.80;;;24.00;41.20;;;;;;6176812;23;20440;-58
2022/09/17 00:36:13;;;;;;;0.93;0.80;;;24.00;41.20;;;;;;6175091;23;20431;-61
2022/09/17 00:38:39;;;;;;;0.80;0.80;;;24.00;41.20;;;;;;6177106;23;20495;-58
2022/09/17 00:41:06;;;;;;;1.87;0.90;;;24.00;41.20;;;;;;6177068;23;20190;-62
2022/09/17 00:43:39;;;;;;;1.53;0.80;;;24.00;41.20;;;;;;6177879;23;20444;-58
2022/09/17 00:46:15;;;;;;;0.90;0.80;;;24.00;41.20;;;;;;6190149;23;20411;-60
2022/09/17 00:48:41;;;;;;;0.83;0.77;;;24.00;41.20;;;;;;6208765;23;20459;-58
2022/09/17 00:51:10;;;;;;;1.00;0.70;;;24.00;41.20;;;;;;6206802;23;20885;-58
2022/09/17 00:53:35;;;;;;;1.10;0.80;;;24.00;41.20;;;;;;6208705;23;20190;-61
2022/09/17 00:56:08;;;;;;;0.87;0.77;;;24.00;41.20;;;;;;6207892;23;20426;-58
2022/09/17 00:58:35;;;;;;;1.00;0.90;;;24.00;41.20;;;;;;6209079;23;20202;-58
2022/09/17 01:01:01;;;;;;;1.33;0.80;;;24.00;41.20;;;;;;6207955;23;20435;-58
2022/09/17 01:03:26;;;;;;;1.00;0.73;;;24.00;41.30;;;;;;6210497;23;21189;-58
2022/09/17 01:06:07;;;;;;;1.00;0.77;;;24.00;41.20;;;;;;6179667;23;20233;-58
2022/09/17 01:08:57;;;;;;;1.07;0.90;;;24.00;41.20;;;;;;6200388;23;20206;-59
2022/09/17 01:11:23;;;;;;;1.17;0.90;;;24.00;41.20;;;;;;6205015;23;20424;-60
2022/09/17 01:14:07;;;;;;;0.90;0.70;;;24.00;41.30;;;;;;6206652;23;20419;-59
2022/09/17 01:16:47;;;;;;;0.97;0.87;;;24.00;42.00;;;;;;6200090;23;20214;-58
2022/09/17 01:20:05;;;;;;;0.80;0.80;;;24.00;42.00;;;;;;6176519;23;20417;-60
2022/09/17 01:22:56;;;;;;;1.10;1.00;;;24.00;41.20;;;;;;6080003;23;20415;-64
2022/09/17 01:25:40;;;;;;;0.90;0.70;;;24.00;41.30;;;;;;6196277;22;20491;-58
2022/09/17 01:28:28;;;;;;;1.00;0.90;;;24.00;41.20;;;;;;6176731;23;20504;-58
2022/09/17 01:31:24;;;;;;;1.10;1.00;;;24.00;41.30;;;;;;6176403;23;20416;-58
2022/09/17 01:34:10;;;;;;;0.80;0.80;;;24.00;41.30;;;;;;6175043;23;20491;-60
2022/09/17 01:36:44;;;;;;;0.90;0.70;;;24.00;41.30;;;;;;6195455;23;20416;-59
2022/09/17 01:39:33;;;;;;;0.80;0.67;;;24.00;41.30;;;;;;6180043;23;20467;-58
2022/09/17 01:42:26;;;;;;;1.13;1.03;;;24.00;41.30;;;;;;6174694;23;20455;-62
2022/09/17 01:44:58;;;;;;;0.70;0.70;;;24.00;41.30;;;;;;6188438;23;20998;-58
2022/09/17 01:47:33;;;;;;;1.30;0.90;;;24.00;41.30;;;;;;6176864;23;20434;-62
2022/09/17 01:50:11;;;;;;;1.10;0.80;;;24.00;41.30;;;;;;6176838;23;20424;-58
2022/09/17 01:52:40;;;;;;;1.00;0.90;;;24.00;41.50;;;;;;6198087;23;20506;-58
2022/09/17 01:55:10;;;;;;;1.10;0.80;;;24.00;41.30;;;;;;6205985;23;20417;-58
2022/09/17 01:57:41;;;;;;;0.80;0.80;;;24.00;41.30;;;;;;6191528;23;20508;-59
2022/09/17 02:00:12;;;;;;;0.70;0.63;;;24.00;41.30;;;;;;6178854;23;20409;-58
2022/09/17 02:02:54;;;;;;;1.07;0.90;;;24.00;41.30;;;;;;6189215;23;20439;-59
2022/09/17 02:05:30;;;;;;;0.80;0.80;;;24.00;41.20;;;;;;6206147;23;20430;-58
2022/09/17 02:08:04;;;;;;;1.07;1.00;;;24.00;41.30;;;;;;6200001;23;20506;-58
2022/09/17 02:10:38;;;;;;;1.23;0.80;;;24.00;41.30;;;;;;6205489;23;20411;-58
2022/09/17 02:13:14;;;;;;;1.23;0.90;;;24.00;41.30;;;;;;6198921;23;20415;-59
2022/09/17 02:15:46;;;;;;;1.00;0.90;;;24.00;41.30;;;;;;6204116;23;20446;-59
2022/09/17 02:18:18;;;;;;;1.23;0.83;;;24.00;41.30;;;;;;6192322;23;20428;-57
2022/09/17 02:20:57;;;;;;;1.00;0.90;;;24.00;41.30;;;;;;6186075;23;20444;-58
2022/09/17 02:23:30;;;;;;;0.80;0.80;;;24.00;41.30;;;;;;6205136;23;20422;-58
2022/09/17 02:25:59;;;;;;;1.03;1.00;;;24.00;41.30;;;;;;6206382;23;20416;-58
2022/09/17 02:28:30;;;;;;;1.67;1.00;;;24.00;41.30;;;;;;6206501;23;20525;-58
2022/09/17 02:30:56;;;;;;;0.80;0.80;;;24.00;41.30;;;;;;6205618;23;21252;-58
2022/09/17 02:33:23;;;;;;;0.80;0.70;;;24.00;41.30;;;;;;6206144;23;20424;-58
2022/09/17 02:35:48;;;;;;;0.90;0.77;;;24.00;41.30;;;;;;6207127;23;20692;-58
2022/09/17 02:38:22;;;;;;;0.80;0.70;;;24.00;42.10;;;;;;6204261;23;20443;-58
2022/09/17 02:40:53;;;;;;;1.80;0.70;;;24.00;41.20;;;;;;6204834;23;20205;-57
2022/09/17 02:43:42;;;;;;;0.73;0.73;;;24.00;41.30;;;;;;6206933;23;20443;-57
2022/09/17 02:46:39;;;;;;;1.20;0.80;;;24.00;41.30;;;;;;6184552;23;20425;-58
2022/09/17 02:49:27;;;;;;;1.00;0.70;;;23.90;41.20;;;;;;6183074;23;20427;-58
2022/09/17 02:52:33;;;;;;;0.93;0.70;;;23.90;41.20;;;;;;6187987;23;20425;-59
2022/09/17 02:55:09;;;;;;;1.00;0.73;;;24.00;41.20;;;;;;6199529;23;20499;-61
2022/09/17 02:57:37;;;;;;;1.20;1.07;;;23.90;41.30;;;;;;6204075;23;20446;-64
2022/09/17 03:00:08;;;;;;;1.00;0.90;;;23.90;41.20;;;;;;6206278;23;20423;-60
2022/09/17 03:02:57;;;;;;;0.80;0.70;;;23.90;41.30;;;;;;6176830;23;20533;-63
2022/09/17 03:05:25;;;;;;;0.83;0.80;;;23.90;41.20;;;;;;6168415;23;20416;-60
2022/09/17 03:07:50;;;;;;;1.00;0.80;;;23.90;41.20;;;;;;6194850;23;20941;-58
2022/09/17 03:10:17;;;;;;;1.10;0.80;;;23.90;41.20;;;;;;6205753;23;20412;-59
2022/09/17 03:12:43;;;;;;;1.10;0.90;;;23.90;41.20;;;;;;6204332;23;20196;-63
2022/09/17 03:15:09;;;;;;;0.80;0.70;;;23.90;41.20;;;;;;6204396;23;20514;-58
2022/09/17 03:17:34;;;;;;;0.90;0.90;;;23.90;41.20;;;;;;6205468;23;20205;-58
2022/09/17 03:20:00;;;;;;;1.73;1.03;;;23.90;41.20;;;;;;6207160;23;20416;-61
2022/09/17 03:22:25;;;;;;;0.90;0.80;;;23.90;41.20;;;;;;6207213;23;20197;-57
2022/09/17 03:24:51;;;;;;;1.10;1.00;;;23.90;41.20;;;;;;6205021;23;20247;-61
2022/09/17 03:27:17;;;;;;;0.80;0.70;;;23.90;41.20;;;;;;6206248;23;20215;-59
2022/09/17 03:29:43;;;;;;;1.07;0.90;;;23.90;41.20;;;;;;6206803;23;20209;-59
2022/09/17 03:32:08;;;;;;;2.13;0.80;;;23.90;41.20;;;;;;6204397;23;20220;-58
2022/09/17 03:34:34;;;;;;;1.83;0.70;;;23.90;41.20;;;;;;6204987;23;20200;-58
2022/09/17 03:36:59;;;;;;;0.83;0.63;;;23.90;41.20;;;;;;6205377;23;20190;-58
2022/09/17 03:39:25;;;;;;;1.13;0.80;;;23.90;41.20;;;;;;6209232;23;20756;-58
2022/09/17 03:41:50;;;;;;;0.70;0.63;;;23.90;41.20;;;;;;6204620;23;20198;-59
2022/09/17 03:44:18;;;;;;;0.70;0.60;;;23.90;41.20;;;;;;6206394;23;20194;-59
2022/09/17 03:46:44;;;;;;;1.10;0.70;;;23.90;41.10;;;;;;6205310;23;20201;-58
2022/09/17 03:49:09;;;;;;;1.10;0.90;;;23.90;41.10;;;;;;6205378;23;20420;-60
2022/09/17 03:51:35;;;;;;;0.80;0.70;;;23.90;41.10;;;;;;6205855;23;20443;-58
2022/09/17 03:54:01;;;;;;;0.93;0.80;;;23.90;41.20;;;;;;6205419;23;20268;-59
2022/09/17 03:56:27;;;;;;;0.87;0.87;;;23.90;41.20;;;;;;6208307;23;20201;-58
2022/09/17 03:58:59;;;;;;;0.83;0.70;;;23.90;41.10;;;;;;6204592;23;20466;-59
2022/09/17 04:01:26;;;;;;;0.80;0.70;;;23.90;41.10;;;;;;6192982;23;20205;-57
2022/09/17 04:03:52;;;;;;;0.73;0.73;;;23.90;41.10;;;;;;6204732;23;20470;-59
2022/09/17 04:06:18;;;;;;;1.20;0.70;;;23.90;41.10;;;;;;6177597;23;20416;-59
2022/09/17 04:08:43;;;;;;;0.90;0.73;;;23.90;41.10;;;;;;6202566;23;20210;-58
2022/09/17 04:11:09;;;;;;;1.00;0.70;;;23.90;41.20;;;;;;6205263;23;20708;-58
2022/09/17 04:13:35;;;;;;;0.77;0.67;;;23.90;41.90;;;;;;6206340;23;20194;-58
2022/09/17 04:16:01;;;;;;;0.67;0.60;;;23.90;41.20;;;;;;6206382;23;20527;-60
2022/09/17 04:18:27;;;;;;;0.90;0.80;;;23.90;41.10;;;;;;6206924;23;20935;-59
2022/09/17 04:20:52;;;;;;;0.63;0.60;;;23.90;41.10;;;;;;6205412;23;20408;-60
2022/09/17 04:23:18;;;;;;;1.10;0.70;;;23.90;41.20;;;;;;6206299;23;20194;-58
2022/09/17 04:25:44;;;;;;;1.00;0.90;;;23.90;41.10;;;;;;6203255;23;20217;-59
2022/09/17 04:28:09;;;;;;;1.07;0.70;;;23.90;41.10;;;;;;6205963;23;20618;-61
2022/09/17 04:30:35;;;;;;;0.80;0.80;;;23.90;41.20;;;;;;6205478;23;20521;-59
2022/09/17 04:33:01;;;;;;;2.40;0.90;;;23.90;41.10;;;;;;6194544;23;20195;-58
2022/09/17 04:35:26;;;;;;;1.13;0.70;;;23.90;41.20;;;;;;6180235;23;20231;-57
2022/09/17 04:37:56;;;;;;;0.83;0.73;;;23.90;41.10;;;;;;6175410;23;20514;-65
2022/09/17 04:40:23;;;;;;;1.40;0.83;;;23.90;41.10;;;;;;6175620;23;20217;-59
2022/09/17 04:42:53;;;;;;;0.80;0.80;;;23.90;41.10;;;;;;6175346;23;20467;-57
2022/09/17 04:45:20;;;;;;;0.80;0.70;;;23.90;41.10;;;;;;6204265;23;20430;-57
2022/09/17 04:47:46;;;;;;;0.80;0.70;;;23.90;41.10;;;;;;6204860;23;20929;-58
2022/09/17 04:50:12;;;;;;;1.10;0.80;;;23.90;41.10;;;;;;6206089;23;20419;-58
2022/09/17 04:52:42;;;;;;;1.40;0.77;;;23.90;41.10;;;;;;6204619;23;20565;-60
2022/09/17 04:55:08;;;;;;;0.90;0.70;;;23.90;41.10;;;;;;6205841;23;20603;-60
2022/09/17 04:57:33;;;;;;;0.80;0.77;;;23.90;41.10;;;;;;6207463;23;20893;-58
2022/09/17 04:59:59;;;;;;;2.50;1.03;;;23.90;41.10;;;;;;6208608;23;20423;-62
2022/09/17 05:02:24;;;;;;;1.20;0.70;;;23.90;41.10;;;;;;6204545;23;20194;-60
2022/09/17 05:04:50;;;;;;;1.00;0.80;;;23.90;41.10;;;;;;6207112;23;20678;-59
2022/09/17 05:07:15;;;;;;;0.83;0.73;;;23.90;41.20;;;;;;6208059;23;20190;-58
2022/09/17 05:09:41;;;;;;;0.93;0.70;;;23.90;41.10;;;;;;6208768;23;20289;-58
2022/09/17 05:12:07;;;;;;;0.80;0.80;;;23.90;41.10;;;;;;6208830;23;20208;-61
2022/09/17 05:14:32;;;;;;;0.93;0.80;;;23.90;41.10;;;;;;6208675;23;20251;-59
2022/09/17 05:16:58;;;;;;;0.70;0.70;;;23.90;41.00;;;;;;6210672;23;20261;-59
2022/09/17 05:19:23;;;;;;;1.67;0.70;;;23.90;41.00;;;;;;6205735;23;20198;-58
2022/09/17 05:21:49;;;;;;;0.70;0.70;;;23.90;41.00;;;;;;6208222;23;21268;-58
2022/09/17 05:24:14;;;;;;;0.80;0.70;;;23.90;41.00;;;;;;6208506;23;20277;-57
2022/09/17 05:26:40;;;;;;;0.93;0.90;;;23.90;41.10;;;;;;6206928;23;20194;-58
2022/09/17 05:29:05;;;;;;;0.90;0.80;;;23.90;41.00;;;;;;6208618;23;20279;-59
2022/09/17 05:31:31;;;;;;;1.00;0.80;;;23.90;41.00;;;;;;6208741;23;20656;-60
2022/09/17 05:33:57;;;;;;;1.10;0.77;;;23.90;41.00;;;;;;6208195;23;20198;-58
2022/09/17 05:36:23;;;;;;;0.73;0.60;;;23.90;41.00;;;;;;6207873;23;20201;-61
2022/09/17 05:38:49;;;;;;;0.80;0.70;;;23.90;41.00;;;;;;6207769;23;20498;-58
2022/09/17 05:41:14;;;;;;;0.70;0.70;;;23.90;41.00;;;;;;6207409;23;20194;-58
2022/09/17 05:43:42;;;;;;;0.80;0.70;;;23.90;41.00;;;;;;6206493;23;20198;-58
2022/09/17 05:46:07;;;;;;;0.90;0.73;;;23.90;41.00;;;;;;6209149;23;20202;-59
2022/09/17 05:48:33;;;;;;;0.87;0.80;;;23.90;41.00;;;;;;6207938;23;20482;-59
2022/09/17 05:50:58;;;;;;;0.83;0.70;;;23.90;41.00;;;;;;6205108;23;20247;-57
2022/09/17 05:53:24;;;;;;;1.10;0.80;;;23.90;41.00;;;;;;6205873;23;20665;-59
2022/09/17 05:55:49;;;;;;;1.63;0.90;;;23.90;41.00;;;;;;6207249;23;20198;-60
2022/09/17 05:58:17;;;;;;;0.90;0.70;;;23.90;41.00;;;;;;6206033;23;20240;-62
2022/09/17 06:00:47;;;;;;;0.87;0.57;;;23.90;41.00;;;;;;6207811;23;20277;-59
2022/09/17 06:03:14;;;;;;;0.77;0.70;;;23.90;41.70;;;;;;6207081;23;20415;-58
2022/09/17 06:05:40;;;;;;;0.80;0.77;;;23.90;40.90;;;;;;6207698;23;20424;-61
2022/09/17 06:08:06;;;;;;;0.80;0.70;;;23.90;41.00;;;;;;6206912;23;20438;-59
2022/09/17 06:10:36;;;;;;;0.70;0.60;;;23.90;41.00;;;;;;6205517;23;20213;-60
2022/09/17 06:13:01;;;;;;;0.90;0.67;;;23.90;41.00;;;;;;6206515;23;20871;-58
2022/09/17 06:15:27;;;;;;;1.00;0.90;;;23.90;41.00;;;;;;6207903;23;20486;-59
2022/09/17 06:17:53;;;;;;;1.10;0.80;;;23.90;40.90;;;;;;6204280;23;20205;-58
2022/09/17 06:20:19;;;;;;;0.80;0.70;;;23.90;41.00;;;;;;6204948;23;20790;-58
2022/09/17 06:22:45;;;;;;;1.27;0.70;;;23.90;40.90;;;;;;6205467;23;20198;-62
2022/09/17 06:25:11;;;;;;;1.00;0.77;;;23.90;41.00;;;;;;6204065;23;20442;-58
2022/09/17 06:27:37;;;;;;;0.73;0.70;;;23.90;40.90;;;;;;6204635;23;20198;-58
2022/09/17 06:30:04;;;;;;;0.90;0.70;;;23.90;40.90;;;;;;6208842;23;20201;-61
2022/09/17 06:32:29;;;;;;;0.80;0.60;;;23.90;40.80;;;;;;6210198;23;20201;-61
2022/09/17 06:34:56;;;;;;;0.80;0.70;;;23.90;40.90;;;;;;6187433;23;20928;-58
2022/09/17 06:37:32;;;;;;;0.97;0.80;;;23.90;40.80;;;;;;6205654;23;20190;-60
2022/09/17 06:39:58;;;;;;;0.60;0.60;;;23.90;40.80;;;;;;6200009;23;20735;-58
2022/09/17 06:42:24;;;;;;;1.03;0.80;;;23.90;40.80;;;;;;6206287;23;20416;-59
2022/09/17 06:44:50;;;;;;;1.00;0.70;;;23.90;40.80;;;;;;6190475;23;20459;-58
2022/09/17 06:47:15;;;;;;;0.77;0.63;;;23.90;40.80;;;;;;6177970;23;20736;-59
2022/09/17 06:49:41;;;;;;;1.37;0.83;;;23.90;40.80;;;;;;6177089;23;20289;-58
2022/09/17 06:52:06;;;;;;;2.60;0.60;;;23.90;40.80;;;;;;6176232;23;20371;-59
2022/09/17 06:54:32;;;;;;;2.13;0.70;;;23.90;40.80;;;;;;6180688;23;20202;-58
2022/09/17 06:56:58;;;;;;;0.90;0.80;;;23.90;40.80;;;;;;6206652;23;20213;-59
2022/09/17 06:59:24;;;;;;;0.73;0.60;;;23.90;40.80;;;;;;6198441;23;20613;-58
2022/09/17 07:01:50;;;;;;;0.97;0.80;;;23.90;40.80;;;;;;6203376;23;20193;-57
2022/09/17 07:04:17;;;;;;;1.90;0.90;;;23.90;40.80;;;;;;6203727;23;20416;-63
2022/09/17 07:06:44;;;;;;;0.70;0.70;;;23.90;41.30;;;;;;6201598;23;20419;-63
2022/09/17 07:09:10;;;;;;;1.73;0.80;;;23.90;40.90;;;;;;6202498;23;20432;-62
2022/09/17 07:11:36;;;;;;;1.10;0.80;;;23.90;40.90;;;;;;6197728;23;20705;-59
2022/09/17 07:14:03;;;;;;;1.73;0.60;;;23.90;40.80;;;;;;6204018;23;20415;-58
2022/09/17 07:16:31;;;;;;;1.33;0.73;;;23.90;40.80;;;;;;6203226;23;20443;-59
2022/09/17 07:18:56;;;;;;;0.80;0.63;;;23.90;40.80;;;;;;6198460;23;20422;-58
2022/09/17 07:21:22;;;;;;;1.63;0.90;;;23.90;40.80;;;;;;6174143;23;20425;-59
2022/09/17 07:23:49;;;;;;;1.93;0.90;;;23.90;40.80;;;;;;6185435;23;21059;-59
2022/09/17 07:26:15;;;;;;;1.80;0.90;;;23.90;40.80;;;;;;6206058;23;20618;-59
2022/09/17 07:28:42;;;;;;;5.67;0.93;;;23.90;40.80;;;;;;6203647;23;20426;-62
2022/09/17 07:31:09;;;;;;;2.27;0.80;;;23.90;40.80;;;;;;6204500;23;20415;-58
2022/09/17 07:33:36;;;;;;;6.00;1.00;;;24.00;40.80;;;;;;6206290;23;20461;-59
2022/09/17 07:36:04;;;;;;;73.47;5.67;;;24.00;40.80;;;;;;6204841;23;20489;-60
2022/09/17 07:38:30;;;;;;;83.67;16.10;;;24.00;40.80;;;;;;6207345;23;20420;-61
2022/09/17 07:40:57;;;;;;;118.27;18.67;;;24.00;40.80;;;;;;6208690;23;20797;-59
2022/09/17 07:43:23;;;;;;;74.90;16.40;;;24.00;40.70;;;;;;6205279;23;20198;-59
2022/09/17 07:45:49;;;;;;;57.87;13.37;;;24.10;40.80;;;;;;6207008;23;20423;-57
2022/09/17 07:48:14;;;;;;;42.63;8.27;;;24.10;40.70;;;;;;6206510;23;20423;-60
2022/09/17 07:50:40;;;;;;;31.40;7.67;;;24.10;40.80;;;;;;6207467;23;20185;-57
2022/09/17 07:53:05;;;;;;;32.33;7.67;;;24.10;40.80;;;;;;6205098;23;20311;-59
2022/09/17 07:55:31;;;;;;;28.70;6.47;;;24.10;40.80;;;;;;6205500;23;20499;-61
2022/09/17 07:57:57;;;;;;;25.87;5.90;;;24.10;40.90;;;;;;6206768;23;20216;-59
2022/09/17 08:00:22;;;;;;;16.50;5.40;;;24.10;41.00;;;;;;6204700;23;20190;-59
2022/09/17 08:02:55;;;;;;;18.83;6.00;;;24.10;40.90;;;;;;6205040;23;20194;-59
2022/09/17 08:05:21;;;;;;;19.90;5.90;;;24.10;40.90;;;;;;6204934;23;20281;-58
2022/09/17 08:07:51;;;;;;;7.23;3.60;;;24.20;41.00;;;;;;6207273;23;20944;-63
2022/09/17 08:10:20;;;;;;;17.37;5.00;;;24.10;41.00;;;;;;6205730;23;20411;-64
2022/09/17 08:12:47;;;;;;;9.40;3.50;;;24.10;41.00;;;;;;6206352;23;20491;-59
2022/09/17 08:15:13;;;;;;;6.87;2.80;;;24.10;41.00;;;;;;6206852;23;20435;-60
2022/09/17 08:17:44;;;;;;;7.73;2.93;;;24.10;41.00;;;;;;6206508;23;20507;-60
2022/09/17 08:20:11;;;;;;;6.27;2.83;;;24.10;41.00;;;;;;6206359;23;20447;-64
2022/09/17 08:22:36;;;;;;;7.10;3.13;;;24.10;41.10;;;;;;6206099;23;20424;-59
2022/09/17 08:25:03;;;;;;;6.90;2.97;;;24.10;41.00;;;;;;6207954;23;20415;-62
2022/09/17 08:27:32;;;;;;;4.10;2.03;;;24.10;41.00;;;;;;6206873;23;20202;-62
2022/09/17 08:29:58;;;;;;;4.53;2.57;;;24.10;41.00;;;;;;6183629;23;20443;-61
2022/09/17 08:32:24;;;;;;;3.03;2.70;;;24.10;41.70;;;;;;6176698;23;20412;-59
2022/09/17 08:34:49;;;;;;;7.60;2.93;;;24.10;40.90;;;;;;6175988;23;20199;-70
2022/09/17 08:37:15;;;;;;;6.80;2.43;;;24.10;40.90;;;;;;6177478;23;21282;-59
2022/09/17 08:39:40;;;;;;;5.93;1.87;;;24.10;40.90;;;;;;6203214;23;20251;-60
2022/09/17 08:42:11;;;;;;;3.20;1.70;;;24.10;40.90;;;;;;6204827;23;20197;-58
2022/09/17 08:44:42;;;;;;;3.03;1.70;;;24.10;40.90;;;;;;6207123;23;20202;-61
2022/09/17 08:47:23;;;;;;;5.07;2.20;;;24.00;40.70;;;;;;6206589;23;20507;-59
2022/09/17 08:49:56;;;;;;;7.93;1.90;;;24.10;40.70;;;;;;6207082;23;20510;-58
2022/09/17 08:52:46;;;;;;;3.13;1.63;;;24.10;40.60;;;;;;6208116;23;20432;-61
2022/09/17 08:55:32;;;;;;;4.57;1.60;;;24.10;40.60;;;;;;6192397;23;20435;-58
2022/09/17 08:58:19;;;;;;;5.27;1.80;;;24.10;40.50;;;;;;6190956;23;20416;-61
2022/09/17 09:00:54;;;;;;;3.40;1.70;;;24.10;40.40;;;;;;6197639;23;20419;-58
2022/09/17 09:03:50;;;;;;;2.87;1.60;;;24.10;40.40;;;;;;6206294;23;23601;-60
2022/09/17 09:06:18;;;;;;;3.57;1.30;;;24.10;40.30;;;;;;6206693;23;20506;-57
2022/09/17 09:08:54;;;;;;;1.80;1.40;;;24.10;40.30;;;;;;6208270;23;20951;-65
2022/09/17 09:11:29;;;;;;;4.80;1.73;;;24.10;40.30;;;;;;6208250;23;20403;-58
2022/09/17 09:14:10;;;;;;;3.13;1.87;;;24.10;40.30;;;;;;6208170;23;20419;-64
2022/09/17 09:16:40;;;;;;;2.83;1.53;;;24.10;40.30;;;;;;6206690;23;20433;-58
2022/09/17 09:19:29;;;;;;;2.00;1.20;;;24.00;40.90;;;;;;6206244;23;20470;-59
2022/09/17 09:22:04;;;;;;;2.20;1.33;;;24.10;40.20;;;;;;6203070;23;20431;-66
2022/09/17 09:25:09;;;;;;;2.03;1.43;;;24.10;40.20;;;;;;6196678;23;20449;-66
2022/09/17 09:27:42;;;;;;;5.53;1.60;;;24.10;40.20;;;;;;6182924;23;20462;-64
2022/09/17 09:30:13;;;;;;;7.93;1.30;;;24.10;40.20;;;;;;6179127;23;20804;-62
2022/09/17 09:32:54;;;;;;;2.60;1.20;;;24.10;40.20;;;;;;6205584;23;20419;-58
2022/09/17 09:35:32;;;;;;;4.10;1.37;;;24.10;40.10;;;;;;6206548;23;20423;-59
2022/09/17 09:38:23;;;;;;;1.63;1.00;;;24.10;40.10;;;;;;6200731;23;20419;-62
2022/09/17 09:41:18;;;;;;;3.00;1.30;;;24.10;40.10;;;;;;6202970;23;20861;-58
2022/09/17 09:43:51;;;;;;;1.43;1.20;;;24.10;40.00;;;;;;6177375;23;20470;-64
2022/09/17 09:46:33;;;;;;;1.20;1.03;;;24.10;40.10;;;;;;6174521;23;20417;-63
2022/09/17 09:49:08;;;;;;;11.73;1.47;;;24.10;40.10;;;;;;6203315;23;20426;-61
2022/09/17 09:52:03;;;;;;;2.40;1.10;;;24.10;40.10;;;;;;6183030;23;20487;-59
2022/09/17 09:54:50;;;;;;;4.93;1.00;;;24.10;40.10;;;;;;6182531;23;20424;-67
2022/09/17 09:57:21;;;;;;;3.30;1.23;;;24.10;40.00;;;;;;6200066;23;20418;-61
2022/09/17 09:59:46;;;;;;;1.10;0.97;;;24.10;40.00;;;;;;6178479;23;20425;-59
2022/09/17 10:02:13;;;;;;;1.83;1.10;;;24.10;40.00;;;;;;6178716;23;20539;-64
2022/09/17 10:04:38;;;;;;;3.70;1.20;;;24.10;40.00;;;;;;6176268;23;20547;-59
2022/09/17 10:07:10;;;;;;;2.33;1.10;;;24.10;40.00;;;;;;6178733;23;20413;-59
2022/09/17 10:09:37;;;;;;;3.67;1.40;;;24.10;40.00;;;;;;6175978;23;20207;-63
2022/09/17 10:12:09;;;;;;;1.30;0.93;;;24.10;40.00;;;;;;6197397;23;20423;-61
2022/09/17 10:14:36;;;;;;;1.40;1.00;;;24.10;39.90;;;;;;6207731;23;20514;-67
2022/09/17 10:17:18;;;;;;;1.00;0.90;;;24.10;40.00;;;;;;6208315;23;20412;-62
2022/09/17 10:19:45;;;;;;;2.30;1.00;;;24.00;39.80;;;;;;6207761;23;20835;-60
2022/09/17 10:22:30;;;;;;;1.10;1.00;;;24.10;40.00;;;;;;6206698;23;20411;-61
2022/09/17 10:24:57;;;;;;;1.23;0.80;;;24.10;40.00;;;;;;6207780;23;20412;-58
2022/09/17 10:27:24;;;;;;;1.07;0.80;;;24.10;40.00;;;;;;6205962;23;20412;-61
2022/09/17 10:30:06;;;;;;;2.20;1.00;;;24.10;40.00;;;;;;6207763;23;20878;-59
2022/09/17 10:32:32;;;;;;;1.83;0.80;;;24.10;39.90;;;;;;6206928;23;20415;-67
2022/09/17 10:35:03;;;;;;;0.80;0.80;;;24.10;39.90;;;;;;6209190;23;20480;-68
2022/09/17 10:37:43;;;;;;;2.40;1.00;;;24.00;39.80;;;;;;6175581;23;20206;-59
2022/09/17 10:40:18;;;;;;;2.60;1.13;;;24.10;39.90;;;;;;6176299;23;20451;-59
2022/09/17 10:42:48;;;;;;;3.20;0.90;;;24.10;39.90;;;;;;6177318;23;20678;-61
2022/09/17 10:45:25;;;;;;;1.50;0.90;;;24.10;39.80;;;;;;6177254;23;20420;-59
2022/09/17 10:47:51;;;;;;;1.33;1.10;;;24.10;39.80;;;;;;6193917;23;20882;-59
2022/09/17 10:50:18;;;;;;;1.37;0.80;;;24.10;39.80;;;;;;6207863;23;20419;-59
2022/09/17 10:52:54;;;;;;;1.70;0.80;;;24.10;39.80;;;;;;6206485;23;20895;-61
2022/09/17 10:55:25;;;;;;;1.10;1.00;;;24.10;39.80;;;;;;6206100;23;20411;-59
2022/09/17 10:58:06;;;;;;;1.40;0.90;;;24.10;39.80;;;;;;6207888;23;20805;-59
2022/09/17 11:00:56;;;;;;;1.10;0.90;;;24.10;39.70;;;;;;6206309;23;20419;-59
2022/09/17 11:03:40;;;;;;;1.13;0.90;;;24.10;39.70;;;;;;6206329;23;20909;-60
2022/09/17 11:06:59;;;;;;;0.97;0.63;;;24.10;39.80;;;;;;6174505;23;20408;-59
2022/09/17 11:10:02;;;;;;;0.90;0.70;;;24.10;39.80;;;;;;6113161;23;20497;-59
2022/09/17 11:12:50;;;;;;;1.13;0.80;;;24.10;39.80;;;;;;6200128;23;20423;-62
2022/09/17 11:15:52;;;;;;;0.80;0.80;;;24.00;40.50;;;;;;6199736;23;20446;-60
2022/09/17 11:18:31;;;;;;;1.00;0.80;;;24.00;39.70;;;;;;6177488;23;20487;-66
2022/09/17 11:21:24;;;;;;;1.33;0.80;;;24.00;39.60;;;;;;6199615;23;20442;-60
2022/09/17 11:24:17;;;;;;;1.07;0.80;;;24.10;39.80;;;;;;6200373;23;20478;-59
2022/09/17 11:27:02;;;;;;;1.53;0.80;;;24.10;39.70;;;;;;6182419;23;20421;-63
2022/09/17 11:29:52;;;;;;;2.10;0.80;;;24.00;39.70;;;;;;6200215;23;20438;-60
2022/09/17 11:32:32;;;;;;;1.20;0.70;;;24.00;39.60;;;;;;6205456;23;20884;-59
2022/09/17 11:35:20;;;;;;;0.80;0.70;;;24.00;39.70;;;;;;6200413;23;20415;-62
2022/09/17 11:37:48;;;;;;;1.70;0.83;;;24.00;39.60;;;;;;6199386;23;20419;-64
2022/09/17 11:40:24;;;;;;;0.87;0.73;;;24.00;39.60;;;;;;6206870;23;21322;-58
2022/09/17 11:43:12;;;;;;;1.07;0.80;;;24.00;39.60;;;;;;6206615;23;20411;-59
2022/09/17 11:45:44;;;;;;;1.57;0.70;;;24.00;40.30;;;;;;6201155;23;20415;-58
2022/09/17 11:48:15;;;;;;;0.83;0.70;;;24.00;39.60;;;;;;6205844;23;20758;-60
2022/09/17 11:50:50;;;;;;;1.00;0.80;;;24.00;39.60;;;;;;6206873;23;20419;-62
2022/09/17 11:53:29;;;;;;;0.70;0.50;;;24.00;39.70;;;;;;6208010;23;20410;-59
2022/09/17 11:56:22;;;;;;;0.80;0.60;;;24.00;39.60;;;;;;6204097;23;20423;-60
2022/09/17 11:58:51;;;;;;;0.70;0.70;;;24.00;39.50;;;;;;6175992;23;20788;-62
2022/09/17 12:01:28;;;;;;;1.00;0.80;;;24.00;39.60;;;;;;6177520;23;20432;-59
2022/09/17 12:04:10;;;;;;;1.30;0.70;;;24.00;39.60;;;;;;6176145;23;20413;-60
2022/09/17 12:06:43;;;;;;;1.30;0.80;;;24.00;39.70;;;;;;6197095;23;20415;-65
2022/09/17 12:09:17;;;;;;;0.87;0.70;;;24.00;39.60;;;;;;6207952;23;20428;-60
2022/09/17 12:11:56;;;;;;;1.17;0.70;;;24.00;39.60;;;;;;6207271;23;20456;-60
2022/09/17 12:14:40;;;;;;;0.80;0.70;;;24.00;39.60;;;;;;6206140;23;20415;-59
2022/09/17 12:17:12;;;;;;;1.20;0.60;;;24.00;39.60;;;;;;6206272;23;20423;-59
2022/09/17 12:19:44;;;;;;;0.90;0.77;;;24.00;39.60;;;;;;6209681;23;20785;-59
2022/09/17 12:22:32;;;;;;;0.80;0.70;;;24.00;39.60;;;;;;6208873;23;20502;-59
2022/09/17 12:24:59;;;;;;;1.00;0.57;;;24.00;39.60;;;;;;6208430;23;20415;-61
2022/09/17 12:27:28;;;;;;;1.00;0.80;;;24.00;39.70;;;;;;6207071;23;20415;-60
2022/09/17 12:30:09;;;;;;;1.00;0.80;;;24.00;39.60;;;;;;6208237;23;20455;-61
2022/09/17 12:32:42;;;;;;;0.70;0.60;;;24.00;39.60;;;;;;6177261;23;21019;-59
2022/09/17 12:35:41;;;;;;;1.20;0.70;;;24.00;39.60;;;;;;6200002;23;20709;-62
2022/09/17 12:38:30;;;;;;;0.87;0.70;;;24.00;39.60;;;;;;6186216;23;20452;-58
2022/09/17 12:41:29;;;;;;;1.70;0.80;;;24.00;39.60;;;;;;6202957;23;20411;-58
2022/09/17 12:44:04;;;;;;;0.90;0.60;;;24.00;39.60;;;;;;6201098;23;20897;-59
2022/09/17 12:46:56;;;;;;;1.00;0.60;;;24.00;39.60;;;;;;6207196;23;20415;-59
2022/09/17 12:49:47;;;;;;;0.80;0.70;;;24.00;39.60;;;;;;6207226;23;20883;-59
2022/09/17 12:52:19;;;;;;;0.77;0.60;;;24.00;39.60;;;;;;6207790;23;20799;-59
2022/09/17 12:55:17;;;;;;;1.33;0.60;;;24.00;39.60;;;;;;6208131;23;20422;-59
2022/09/17 12:58:10;;;;;;;0.70;0.53;;;24.00;39.60;;;;;;6192018;23;20867;-62
2022/09/17 13:00:43;;;;;;;0.90;0.83;;;24.00;39.60;;;;;;6200510;23;20415;-59
2022/09/17 13:03:21;;;;;;;1.10;0.70;;;24.00;39.60;;;;;;6207612;23;20490;-63
2022/09/17 13:05:58;;;;;;;1.43;0.87;;;24.00;39.60;;;;;;6207744;23;20431;-59
2022/09/17 13:08:30;;;;;;;1.53;0.70;;;24.00;39.60;;;;;;6177752;23;20452;-61
2022/09/17 13:11:18;;;;;;;0.80;0.60;;;24.00;39.50;;;;;;6177636;23;20904;-61
2022/09/17 13:14:08;;;;;;;0.70;0.70;;;24.00;39.60;;;;;;6176545;23;20424;-59